Terminal Aerodrome Forecast
Issued by NWS Melbourne, FL

Home | Current Version | Previous Version | Text Only | Print | Product List | Glossary On
Versions: 1 2 3 4 5 6 7 8 9 10 11 12
000
FTUS42 KMLB 271732
TAFMLB
TAF
KMLB 271732Z 2718/2818 05011KT P6SM VCSH SCT030 BKN050
      TEMPO 2719/2723 5SM SHRA BKN025 OVC040
     FM280100 07004KT P6SM SCT025
     FM281400 07010KT P6SM SCT035=

USA.gov is the U.S. government's official web portal to all federal, state and local government web resources and services.